Time;durP1;ratioP1;P1;durP2;ratioP2;P2;SDS_P1;SDS_P2;PMS_P1;PMS_P2;Temp;Humidity;BMP_temperature;BMP_pressure;BME280_temperature;BME280_humidity;BME280_pressure;Samples;Min_cycle;Max_cycle;Signal;HPM_P1;HPM_P2
2021/05/17 00:00:18;;;;;;;1.60;0.60;;;13.60;94.60;;;;;;5012901;28;20690;-52
2021/05/17 00:02:45;;;;;;;0.93;0.60;;;13.60;94.60;;;;;;5013011;28;20663;-52
2021/05/17 00:05:12;;;;;;;0.70;0.70;;;13.60;94.60;;;;;;5012420;28;20687;-51
2021/05/17 00:07:39;;;;;;;2.07;0.60;;;13.60;94.60;;;;;;5012795;28;20663;-51
2021/05/17 00:10:07;;;;;;;1.33;0.80;;;13.50;94.50;;;;;;5013281;28;21220;-51
2021/05/17 00:12:35;;;;;;;0.80;0.70;;;13.50;94.60;;;;;;5013109;28;20639;-52
2021/05/17 00:15:03;;;;;;;1.00;0.70;;;13.50;94.60;;;;;;5012844;28;20725;-50
2021/05/17 00:17:29;;;;;;;0.80;0.60;;;13.50;94.70;;;;;;5012757;28;20627;-51
2021/05/17 00:19:57;;;;;;;1.37;1.27;;;13.50;94.80;;;;;;5012436;28;20650;-54
2021/05/17 00:22:24;;;;;;;1.90;1.07;;;13.40;95.30;;;;;;5013028;28;20662;-51
2021/05/17 00:24:51;;;;;;;1.67;1.10;;;13.50;95.60;;;;;;5013032;28;20655;-51
2021/05/17 00:27:18;;;;;;;1.23;0.90;;;13.50;95.60;;;;;;5012216;28;20631;-51
2021/05/17 00:29:46;;;;;;;2.93;0.73;;;13.50;95.70;;;;;;5012290;28;21028;-51
2021/05/17 00:32:13;;;;;;;1.90;0.80;;;13.40;95.70;;;;;;5012061;28;20631;-52
2021/05/17 00:34:40;;;;;;;1.23;1.13;;;13.30;95.50;;;;;;4997905;28;20694;-51
2021/05/17 00:37:07;;;;;;;1.87;1.57;;;13.30;95.90;;;;;;5011911;28;21137;-52
2021/05/17 00:39:34;;;;;;;1.33;0.90;;;13.10;96.10;;;;;;5012289;28;20654;-52
2021/05/17 00:42:02;;;;;;;2.60;1.10;;;13.20;96.40;;;;;;5012235;28;20632;-52
2021/05/17 00:44:29;;;;;;;4.50;1.13;;;13.20;96.40;;;;;;5012429;28;20669;-51
2021/05/17 00:46:56;;;;;;;1.47;0.73;;;13.20;96.50;;;;;;5011884;28;20667;-52
2021/05/17 00:49:23;;;;;;;4.77;1.03;;;13.20;96.50;;;;;;5011926;28;20706;-51
2021/05/17 00:51:50;;;;;;;0.90;0.87;;;13.20;96.50;;;;;;5012486;28;20695;-52
2021/05/17 00:54:17;;;;;;;1.13;1.03;;;13.10;96.40;;;;;;5009874;28;21055;-53
2021/05/17 00:56:44;;;;;;;1.40;1.30;;;13.10;96.50;;;;;;5012179;28;20692;-50
2021/05/17 00:59:11;;;;;;;3.27;0.90;;;13.20;96.60;;;;;;5011410;28;20658;-51
2021/05/17 01:01:38;;;;;;;4.60;1.40;;;13.20;96.60;;;;;;5011802;28;20670;-51
2021/05/17 01:04:06;;;;;;;1.30;1.00;;;13.20;96.80;;;;;;5011977;28;20666;-52
2021/05/17 01:06:32;;;;;;;3.00;1.63;;;13.20;96.80;;;;;;5011870;28;20683;-52
2021/05/17 01:09:00;;;;;;;3.40;1.23;;;13.20;96.60;;;;;;5011814;28;20659;-51
2021/05/17 01:11:27;;;;;;;6.23;1.10;;;13.20;96.70;;;;;;5010185;28;20652;-52
2021/05/17 01:13:56;;;;;;;1.10;0.73;;;13.20;96.60;;;;;;5011213;28;20624;-52
2021/05/17 01:16:23;;;;;;;1.97;1.10;;;13.10;96.40;;;;;;5011657;28;20733;-51
2021/05/17 01:18:51;;;;;;;0.70;0.63;;;13.10;96.40;;;;;;5011041;28;20636;-53
2021/05/17 01:21:20;;;;;;;1.10;1.00;;;13.00;96.50;;;;;;5012473;28;20988;-53
2021/05/17 01:23:54;;;;;;;0.80;0.70;;;13.10;96.60;;;;;;5011231;28;20631;-53
2021/05/17 01:26:21;;;;;;;1.30;1.10;;;13.10;96.60;;;;;;5010925;28;20682;-53
2021/05/17 01:28:48;;;;;;;2.03;1.33;;;13.10;96.50;;;;;;5010823;28;21079;-53
2021/05/17 01:31:15;;;;;;;2.20;1.03;;;13.10;96.50;;;;;;5011071;28;20664;-53
2021/05/17 01:33:43;;;;;;;1.93;0.83;;;13.20;96.50;;;;;;5011488;28;20674;-53
2021/05/17 01:36:10;;;;;;;3.37;1.20;;;13.20;96.50;;;;;;5011086;28;21294;-53
2021/05/17 01:38:39;;;;;;;2.13;0.90;;;13.20;96.50;;;;;;5009231;28;21024;-53
2021/05/17 01:41:09;;;;;;;1.40;1.30;;;13.20;96.60;;;;;;5010864;28;20620;-53
2021/05/17 01:43:38;;;;;;;0.80;0.60;;;13.30;96.70;;;;;;5004170;28;20705;-52
2021/05/17 01:46:05;;;;;;;1.20;0.67;;;13.30;96.60;;;;;;5011064;28;20730;-53
2021/05/17 01:48:32;;;;;;;1.37;0.80;;;13.30;96.40;;;;;;5011255;28;20678;-53
2021/05/17 01:50:59;;;;;;;1.23;1.07;;;13.30;96.30;;;;;;5011195;28;21062;-52
2021/05/17 01:53:25;;;;;;;1.00;1.00;;;13.30;96.40;;;;;;5011067;28;20689;-52
2021/05/17 01:55:52;;;;;;;0.90;0.90;;;13.30;96.30;;;;;;5009884;28;20921;-53
2021/05/17 01:58:24;;;;;;;9.43;1.10;;;13.30;96.20;;;;;;5009494;28;20655;-53
2021/05/17 02:00:51;;;;;;;1.93;1.23;;;13.30;96.10;;;;;;4991732;28;20625;-52
2021/05/17 02:03:18;;;;;;;1.20;0.77;;;13.40;96.10;;;;;;5004380;28;21177;-52
2021/05/17 02:05:46;;;;;;;2.03;0.80;;;13.30;96.10;;;;;;5008759;28;20775;-52
2021/05/17 02:08:13;;;;;;;1.63;1.07;;;13.30;96.20;;;;;;5010869;28;21195;-52
2021/05/17 02:10:40;;;;;;;1.20;1.10;;;13.40;96.40;;;;;;5010481;28;20656;-53
2021/05/17 02:13:07;;;;;;;2.10;0.93;;;13.40;96.30;;;;;;5010646;28;20712;-52
2021/05/17 02:15:36;;;;;;;1.30;1.10;;;13.40;96.30;;;;;;5009809;28;21252;-53
2021/05/17 02:18:04;;;;;;;1.13;1.03;;;13.40;96.40;;;;;;5009881;28;20656;-53
2021/05/17 02:20:32;;;;;;;1.87;1.77;;;13.30;96.40;;;;;;5010544;28;20713;-52
2021/05/17 02:22:59;;;;;;;1.30;0.90;;;13.30;96.40;;;;;;5010210;28;20682;-53
2021/05/17 02:25:26;;;;;;;1.53;1.10;;;13.30;96.60;;;;;;5010470;28;21038;-51
2021/05/17 02:27:53;;;;;;;1.93;1.07;;;13.40;96.70;;;;;;5010357;28;20677;-52
2021/05/17 02:30:21;;;;;;;3.00;1.33;;;13.40;96.80;;;;;;5010476;28;20790;-51
2021/05/17 02:32:48;;;;;;;2.17;1.50;;;13.40;96.70;;;;;;5010148;28;20640;-51
2021/05/17 02:35:16;;;;;;;1.73;1.23;;;13.40;96.70;;;;;;5009483;28;20709;-50
2021/05/17 02:37:43;;;;;;;3.03;1.10;;;13.40;96.70;;;;;;5010099;28;21132;-51
2021/05/17 02:40:11;;;;;;;1.20;1.10;;;13.30;96.70;;;;;;5010601;28;20655;-51
2021/05/17 02:42:37;;;;;;;3.33;1.43;;;13.30;96.80;;;;;;5010667;28;20631;-50
2021/05/17 02:45:05;;;;;;;3.30;0.90;;;13.40;96.90;;;;;;5008757;28;20717;-51
2021/05/17 02:47:33;;;;;;;1.87;1.27;;;13.40;96.90;;;;;;5009795;28;20651;-51
2021/05/17 02:50:01;;;;;;;2.43;1.57;;;13.40;96.80;;;;;;5009620;28;20709;-51
2021/05/17 02:52:30;;;;;;;1.63;1.27;;;13.40;96.90;;;;;;5010188;28;20635;-51
2021/05/17 02:55:01;;;;;;;1.70;1.20;;;13.30;96.90;;;;;;5009905;28;21274;-52
2021/05/17 02:57:44;;;;;;;2.13;1.17;;;13.40;97.00;;;;;;5009591;28;20643;-51
2021/05/17 03:00:18;;;;;;;1.80;1.70;;;13.40;97.00;;;;;;5009997;28;20682;-52
2021/05/17 03:02:53;;;;;;;2.53;1.50;;;13.40;97.00;;;;;;5010203;28;20671;-52
2021/05/17 03:05:21;;;;;;;1.43;1.33;;;13.40;97.10;;;;;;5009932;28;20733;-52
2021/05/17 03:07:54;;;;;;;2.33;1.83;;;13.40;97.10;;;;;;5009876;28;21259;-51
2021/05/17 03:10:21;;;;;;;3.50;1.70;;;13.50;97.10;;;;;;5011751;28;20660;-52
2021/05/17 03:12:48;;;;;;;3.33;1.60;;;13.50;97.30;;;;;;5012511;28;21196;-51
2021/05/17 03:15:14;;;;;;;3.80;2.00;;;13.40;97.40;;;;;;5013753;28;20686;-51
2021/05/17 03:17:41;;;;;;;2.20;1.70;;;13.30;97.60;;;;;;5013596;28;20635;-52
2021/05/17 03:20:08;;;;;;;2.37;1.63;;;13.20;97.90;;;;;;5014225;28;20619;-52
2021/05/17 03:22:36;;;;;;;2.00;1.53;;;13.10;98.10;;;;;;5013486;28;20639;-51
2021/05/17 03:25:04;;;;;;;2.40;2.20;;;13.10;98.20;;;;;;5013595;28;20671;-51
2021/05/17 03:27:30;;;;;;;3.50;1.93;;;13.10;98.30;;;;;;5013817;28;21246;-50
2021/05/17 03:29:57;;;;;;;3.83;1.60;;;13.20;98.40;;;;;;5013740;28;20688;-51
2021/05/17 03:32:25;;;;;;;2.03;1.83;;;13.20;98.30;;;;;;5013594;28;20655;-50
2021/05/17 03:34:51;;;;;;;6.80;2.47;;;13.20;98.60;;;;;;5013678;28;20659;-50
2021/05/17 03:37:18;;;;;;;3.57;2.13;;;13.20;98.30;;;;;;5012955;28;20631;-51
2021/05/17 03:39:46;;;;;;;2.37;2.00;;;13.20;98.20;;;;;;4997965;28;20682;-51
2021/05/17 03:42:13;;;;;;;2.27;2.07;;;13.20;98.20;;;;;;5013514;28;20628;-52
2021/05/17 03:44:39;;;;;;;3.37;2.17;;;13.10;98.60;;;;;;5013697;28;21259;-52
2021/05/17 03:47:06;;;;;;;2.63;2.43;;;13.00;98.50;;;;;;5013352;28;20628;-52
2021/05/17 03:49:33;;;;;;;5.10;2.30;;;13.00;98.70;;;;;;5012925;28;20677;-52
2021/05/17 03:51:59;;;;;;;2.73;1.90;;;13.00;98.70;;;;;;5013202;28;20713;-52
2021/05/17 03:54:26;;;;;;;2.90;2.17;;;13.00;98.70;;;;;;5012200;28;21044;-52
2021/05/17 03:56:54;;;;;;;3.67;2.10;;;13.00;98.70;;;;;;5012218;28;21172;-52
2021/05/17 03:59:20;;;;;;;1.97;1.77;;;13.10;98.70;;;;;;5013357;28;20947;-52
2021/05/17 04:01:47;;;;;;;2.80;2.17;;;13.10;98.60;;;;;;5012757;28;20682;-52
2021/05/17 04:04:15;;;;;;;3.20;2.00;;;13.10;98.40;;;;;;5012905;28;21007;-52
2021/05/17 04:06:47;;;;;;;4.50;1.87;;;13.20;98.30;;;;;;5012809;28;20643;-52
2021/05/17 04:14:44;;;;;;;3.17;1.70;;;13.20;97.80;;;;;;5013168;28;20730;-51
2021/05/17 04:17:11;;;;;;;5.67;2.27;;;13.20;97.80;;;;;;5012715;28;20650;-51
2021/05/17 04:19:38;;;;;;;1.93;1.47;;;13.20;97.70;;;;;;5012726;28;20627;-53
2021/05/17 04:22:04;;;;;;;2.87;1.80;;;13.20;97.70;;;;;;5012031;28;20701;-51
2021/05/17 04:24:31;;;;;;;4.00;2.40;;;13.20;97.70;;;;;;5012050;28;20639;-52
2021/05/17 04:26:59;;;;;;;1.53;1.43;;;13.20;97.60;;;;;;5012571;28;20631;-52
2021/05/17 04:29:26;;;;;;;2.40;1.43;;;13.20;97.50;;;;;;5012418;28;20996;-52
2021/05/17 04:31:53;;;;;;;2.33;2.13;;;13.30;97.60;;;;;;5012439;28;20694;-52
2021/05/17 04:34:19;;;;;;;1.80;1.53;;;13.30;97.60;;;;;;5012348;28;20635;-51
2021/05/17 04:36:46;;;;;;;4.30;1.87;;;13.30;97.40;;;;;;5012154;28;21078;-52
2021/05/17 04:39:13;;;;;;;2.00;1.50;;;13.30;97.40;;;;;;5012076;28;20690;-52
2021/05/17 04:41:39;;;;;;;5.47;1.43;;;13.30;97.40;;;;;;5011911;28;20627;-51
2021/05/17 04:44:08;;;;;;;1.67;1.27;;;13.40;97.40;;;;;;5012455;28;21281;-51
2021/05/17 04:46:34;;;;;;;2.00;1.80;;;13.40;97.40;;;;;;5011140;28;20683;-51
2021/05/17 04:49:01;;;;;;;2.03;1.63;;;13.40;97.30;;;;;;5011955;28;20639;-51
2021/05/17 04:51:28;;;;;;;1.93;1.57;;;13.40;97.20;;;;;;5011730;28;20702;-52
2021/05/17 04:53:54;;;;;;;3.27;1.57;;;13.40;97.20;;;;;;5011874;28;20663;-51
2021/05/17 04:56:21;;;;;;;2.73;1.70;;;13.40;97.10;;;;;;5011859;28;20667;-53
2021/05/17 04:58:48;;;;;;;2.10;1.97;;;13.40;97.10;;;;;;5011747;28;20674;-52
2021/05/17 05:01:15;;;;;;;3.97;1.50;;;13.50;97.10;;;;;;5011343;28;21241;-50
2021/05/17 05:03:42;;;;;;;3.00;1.63;;;13.40;96.90;;;;;;5010745;28;20702;-51
2021/05/17 05:06:09;;;;;;;1.43;1.27;;;13.50;96.90;;;;;;5009090;28;20682;-51
2021/05/17 05:08:36;;;;;;;1.83;1.23;;;13.40;96.80;;;;;;5011128;28;21454;-52
2021/05/17 05:11:03;;;;;;;2.80;1.40;;;13.40;96.80;;;;;;5011660;28;20818;-52
2021/05/17 05:13:29;;;;;;;2.37;1.40;;;13.40;96.80;;;;;;5011692;28;20698;-53
2021/05/17 05:15:56;;;;;;;1.90;1.30;;;13.50;96.80;;;;;;5011408;28;20651;-53
2021/05/17 05:18:23;;;;;;;2.00;1.47;;;13.40;96.70;;;;;;5011387;28;21221;-52
2021/05/17 05:20:50;;;;;;;1.63;1.53;;;13.50;96.80;;;;;;5011195;28;21046;-51
2021/05/17 05:23:18;;;;;;;1.80;1.40;;;13.40;96.90;;;;;;5010992;28;20702;-52
2021/05/17 05:28:50;;;;;;;2.23;1.70;;;13.50;96.90;;;;;;5009104;28;20682;-53
2021/05/17 05:31:20;;;;;;;2.13;1.53;;;13.50;96.90;;;;;;5011722;28;20725;-53
2021/05/17 05:33:48;;;;;;;1.57;1.47;;;13.50;96.80;;;;;;5010498;28;21037;-53
2021/05/17 05:36:15;;;;;;;1.40;1.27;;;13.50;96.70;;;;;;5011223;28;20698;-55
2021/05/17 05:38:41;;;;;;;2.13;1.50;;;13.50;96.90;;;;;;5011515;28;20639;-54
2021/05/17 05:41:08;;;;;;;4.30;1.63;;;13.40;96.80;;;;;;5011252;28;20968;-52
2021/05/17 05:43:35;;;;;;;1.33;1.20;;;13.40;96.90;;;;;;5011078;28;21258;-51
2021/05/17 05:46:01;;;;;;;1.90;1.80;;;13.40;97.00;;;;;;5011778;28;20721;-53
2021/05/17 05:48:29;;;;;;;1.93;1.60;;;13.20;97.30;;;;;;5010499;28;20620;-54
2021/05/17 05:50:56;;;;;;;2.10;1.57;;;13.20;97.90;;;;;;5010693;28;20728;-53
2021/05/17 05:53:23;;;;;;;1.90;1.70;;;13.10;98.20;;;;;;5011357;28;20685;-52
2021/05/17 05:55:50;;;;;;;4.77;1.63;;;13.00;98.30;;;;;;5010932;28;21243;-53
2021/05/17 05:58:17;;;;;;;2.60;1.80;;;13.00;98.50;;;;;;5010999;28;20666;-52
2021/05/17 06:00:44;;;;;;;2.43;1.80;;;12.90;98.50;;;;;;5010529;28;20741;-52
2021/05/17 06:03:10;;;;;;;3.10;1.70;;;12.90;98.50;;;;;;5009194;28;20680;-52
2021/05/17 06:05:38;;;;;;;3.30;1.90;;;12.90;98.60;;;;;;5010509;28;20866;-52
2021/05/17 06:08:05;;;;;;;5.40;2.57;;;12.90;98.70;;;;;;5009922;28;20624;-52
2021/05/17 06:10:32;;;;;;;2.50;1.53;;;12.90;98.80;;;;;;5009906;28;20702;-52
2021/05/17 06:12:59;;;;;;;1.50;1.13;;;13.00;98.60;;;;;;5010086;28;20728;-52
2021/05/17 06:15:27;;;;;;;3.27;1.37;;;13.10;98.70;;;;;;5010280;28;21165;-52
2021/05/17 06:17:57;;;;;;;1.93;1.83;;;13.10;98.20;;;;;;5010506;28;20608;-51
2021/05/17 06:20:24;;;;;;;3.53;1.73;;;13.20;98.20;;;;;;5009014;28;20723;-50
2021/05/17 06:22:51;;;;;;;1.87;1.43;;;13.20;98.10;;;;;;5010213;28;20694;-52
2021/05/17 06:25:20;;;;;;;3.70;1.90;;;13.20;98.20;;;;;;5009908;28;20668;-52
2021/05/17 06:27:47;;;;;;;1.50;1.40;;;13.30;98.40;;;;;;5009635;28;20635;-52
2021/05/17 06:30:16;;;;;;;2.00;1.57;;;13.30;98.20;;;;;;5010321;28;20624;-51
2021/05/17 06:32:43;;;;;;;4.00;1.70;;;13.30;98.00;;;;;;5010057;28;21242;-51
2021/05/17 06:35:11;;;;;;;1.57;1.47;;;13.30;98.10;;;;;;5009629;28;21213;-51
2021/05/17 06:37:38;;;;;;;1.70;1.60;;;13.40;98.10;;;;;;5010095;28;20631;-51
2021/05/17 06:40:06;;;;;;;3.17;1.80;;;13.40;98.10;;;;;;5009959;28;20693;-51
2021/05/17 06:42:34;;;;;;;4.50;2.77;;;13.50;98.10;;;;;;5010489;28;20624;-51
2021/05/17 06:45:01;;;;;;;5.00;2.40;;;13.50;98.10;;;;;;5009650;28;21069;-52
2021/05/17 06:47:28;;;;;;;5.00;2.10;;;13.50;97.70;;;;;;5009709;28;20689;-52
2021/05/17 06:49:55;;;;;;;2.50;2.00;;;13.50;97.60;;;;;;5009858;28;20662;-52
2021/05/17 06:52:25;;;;;;;3.17;2.87;;;13.50;98.00;;;;;;5010150;28;20783;-51
2021/05/17 06:54:57;;;;;;;4.63;2.90;;;13.60;98.30;;;;;;5009628;28;20663;-52
2021/05/17 06:57:30;;;;;;;2.37;2.17;;;13.70;98.10;;;;;;5009635;28;20682;-53
2021/05/17 07:00:02;;;;;;;3.40;1.70;;;13.70;97.70;;;;;;5009955;28;20632;-52
2021/05/17 07:02:29;;;;;;;4.43;1.77;;;13.80;97.80;;;;;;5010293;28;21153;-52
2021/05/17 07:04:57;;;;;;;2.17;1.97;;;13.90;97.90;;;;;;5009812;28;20746;-52
2021/05/17 07:07:28;;;;;;;4.67;2.57;;;13.90;97.80;;;;;;4994966;28;20641;-51
2021/05/17 07:12:40;;;;;;;2.53;2.10;;;14.10;97.60;;;;;;4990408;28;20722;-52
2021/05/17 07:15:09;;;;;;;2.30;2.07;;;14.10;97.20;;;;;;4990003;28;21185;-53
2021/05/17 07:17:36;;;;;;;2.27;2.07;;;14.10;97.20;;;;;;4990181;28;20633;-51
2021/05/17 07:20:03;;;;;;;5.00;2.50;;;14.30;97.10;;;;;;4990698;28;20925;-52
2021/05/17 07:25:15;;;;;;;2.60;2.10;;;14.40;96.70;;;;;;5005937;28;21121;-51
2021/05/17 07:27:42;;;;;;;2.37;1.97;;;14.40;96.20;;;;;;5009141;28;20987;-52
2021/05/17 07:30:11;;;;;;;3.57;1.97;;;14.50;96.30;;;;;;5009738;28;20977;-51
2021/05/17 07:32:37;;;;;;;2.03;1.83;;;14.60;96.30;;;;;;5010016;28;20924;-51
2021/05/17 07:35:05;;;;;;;2.40;2.20;;;14.70;95.90;;;;;;5009918;28;21067;-52
2021/05/17 07:37:32;;;;;;;2.40;1.30;;;14.90;95.30;;;;;;5009031;28;21172;-51
2021/05/17 07:39:59;;;;;;;3.40;2.03;;;15.00;94.40;;;;;;5009755;28;20619;-52
2021/05/17 07:42:26;;;;;;;2.27;1.60;;;15.00;94.00;;;;;;5009420;28;20706;-52
2021/05/17 07:44:53;;;;;;;2.53;2.10;;;15.00;94.40;;;;;;5009248;28;20726;-52
2021/05/17 07:47:20;;;;;;;4.23;2.10;;;15.00;94.40;;;;;;5009197;28;20628;-52
2021/05/17 07:49:53;;;;;;;3.50;2.47;;;15.00;93.30;;;;;;5009567;28;20673;-53
2021/05/17 07:52:19;;;;;;;2.60;1.70;;;14.90;93.10;;;;;;5009348;28;20741;-53
2021/05/17 07:54:46;;;;;;;4.37;2.33;;;14.80;93.20;;;;;;5009113;28;20667;-52
2021/05/17 07:57:14;;;;;;;3.50;2.10;;;14.80;92.70;;;;;;5001426;28;20625;-53
2021/05/17 07:59:41;;;;;;;1.50;1.20;;;14.70;92.70;;;;;;4992712;28;21134;-52
2021/05/17 08:02:08;;;;;;;3.10;1.43;;;14.60;93.00;;;;;;5007251;28;20625;-52
2021/05/17 08:04:35;;;;;;;2.90;2.23;;;14.60;92.80;;;;;;4992774;28;20702;-53
2021/05/17 08:07:03;;;;;;;4.37;2.13;;;14.70;93.00;;;;;;4993132;28;20625;-53
2021/05/17 08:09:30;;;;;;;5.27;1.73;;;15.00;92.90;;;;;;4992942;28;20703;-53
2021/05/17 08:11:57;;;;;;;5.53;1.97;;;15.20;91.80;;;;;;4993143;28;20688;-52
2021/05/17 08:14:23;;;;;;;3.93;2.17;;;15.30;91.60;;;;;;4993268;28;20639;-53
2021/05/17 08:16:50;;;;;;;1.43;1.33;;;15.30;91.60;;;;;;4993519;28;20632;-51
2021/05/17 08:19:17;;;;;;;5.70;1.70;;;15.30;91.00;;;;;;4993157;28;21012;-51
2021/05/17 08:21:45;;;;;;;4.07;1.80;;;15.20;90.80;;;;;;4993146;28;20624;-52
2021/05/17 08:24:12;;;;;;;1.27;1.00;;;15.30;91.20;;;;;;5000271;28;20781;-51
2021/05/17 08:26:40;;;;;;;6.10;1.50;;;15.40;90.30;;;;;;5012480;28;20673;-51
2021/05/17 08:29:07;;;;;;;1.40;1.30;;;15.50;90.00;;;;;;5012510;28;20631;-52
2021/05/17 08:31:34;;;;;;;2.23;1.60;;;15.60;89.30;;;;;;5013067;28;20667;-51
2021/05/17 08:34:01;;;;;;;3.23;1.80;;;15.70;89.70;;;;;;5013136;28;20663;-52
2021/05/17 08:36:28;;;;;;;2.50;1.47;;;15.90;87.90;;;;;;5012105;28;20664;-52
2021/05/17 08:38:55;;;;;;;2.53;1.33;;;16.00;87.10;;;;;;5012230;28;21133;-51
2021/05/17 08:41:22;;;;;;;1.83;1.50;;;16.10;87.80;;;;;;5012764;28;20936;-52
2021/05/17 08:43:49;;;;;;;4.27;1.47;;;16.10;85.40;;;;;;5012228;28;20686;-52
2021/05/17 08:46:16;;;;;;;3.20;1.00;;;15.90;86.00;;;;;;5012278;28;20725;-51
2021/05/17 08:48:47;;;;;;;1.83;1.10;;;15.80;87.30;;;;;;5012190;28;21177;-51
2021/05/17 08:51:15;;;;;;;1.43;0.87;;;15.70;88.70;;;;;;5011943;28;20660;-51
2021/05/17 08:53:42;;;;;;;2.20;1.03;;;15.50;89.20;;;;;;5012512;28;20989;-52
2021/05/17 08:56:10;;;;;;;1.00;0.80;;;15.30;90.20;;;;;;5011995;28;20663;-52
2021/05/17 08:58:37;;;;;;;3.73;1.83;;;15.10;91.70;;;;;;5012052;28;20627;-51
2021/05/17 09:01:04;;;;;;;2.43;0.87;;;14.90;93.00;;;;;;5012312;28;20693;-51
2021/05/17 09:03:31;;;;;;;3.03;1.30;;;14.70;93.30;;;;;;5012341;28;20664;-52
2021/05/17 09:05:58;;;;;;;2.00;1.20;;;14.60;93.60;;;;;;5011897;28;20659;-52
2021/05/17 09:08:25;;;;;;;3.57;1.30;;;14.60;93.80;;;;;;5011221;28;20637;-52
2021/05/17 09:10:52;;;;;;;1.00;0.90;;;14.50;93.50;;;;;;5011879;28;20639;-52
2021/05/17 09:13:21;;;;;;;1.47;0.90;;;14.50;93.50;;;;;;5011475;28;20663;-51
2021/05/17 09:15:48;;;;;;;5.97;1.27;;;14.70;93.70;;;;;;5011610;28;20751;-52
2021/05/17 09:18:16;;;;;;;2.90;1.50;;;14.90;93.30;;;;;;5011892;28;20734;-51
2021/05/17 09:20:43;;;;;;;5.27;1.13;;;15.10;92.50;;;;;;5011576;28;20989;-52
2021/05/17 09:23:18;;;;;;;0.73;0.63;;;15.40;92.40;;;;;;5011813;28;20639;-51
2021/05/17 09:25:59;;;;;;;2.13;1.10;;;15.70;91.70;;;;;;5010999;28;20643;-51
2021/05/17 09:28:27;;;;;;;2.67;1.00;;;15.90;90.80;;;;;;5011361;28;20677;-51
2021/05/17 09:30:55;;;;;;;2.97;0.80;;;16.00;89.20;;;;;;5011310;28;20627;-52
2021/05/17 09:33:22;;;;;;;5.80;1.40;;;16.10;87.90;;;;;;5011801;28;20698;-52
2021/05/17 09:35:49;;;;;;;1.20;0.90;;;16.00;88.20;;;;;;5011405;28;20763;-51
2021/05/17 09:38:23;;;;;;;3.37;1.17;;;16.10;87.80;;;;;;5011001;28;20615;-52
2021/05/17 09:41:01;;;;;;;2.70;1.00;;;16.00;85.50;;;;;;5010949;28;20632;-51
2021/05/17 09:43:28;;;;;;;3.73;0.90;;;15.90;87.20;;;;;;5011107;28;20628;-53
2021/05/17 09:45:55;;;;;;;1.00;0.90;;;15.90;85.80;;;;;;5010476;28;20717;-52
2021/05/17 09:48:23;;;;;;;1.90;1.27;;;15.90;86.20;;;;;;5010360;28;20659;-52
2021/05/17 09:51:12;;;;;;;4.00;0.83;;;15.80;85.30;;;;;;5010749;28;20632;-52
2021/05/17 09:53:41;;;;;;;1.90;0.90;;;15.80;84.90;;;;;;5006792;28;21158;-51
2021/05/17 09:56:08;;;;;;;1.10;1.00;;;15.70;85.20;;;;;;5010571;28;20656;-50
2021/05/17 09:58:37;;;;;;;1.43;0.77;;;15.70;87.40;;;;;;5010381;28;21042;-52
2021/05/17 10:01:06;;;;;;;1.77;1.40;;;15.60;87.30;;;;;;5010746;28;20624;-51
2021/05/17 10:03:37;;;;;;;1.80;1.47;;;15.70;87.60;;;;;;5010789;28;21129;-51
2021/05/17 10:06:04;;;;;;;4.53;1.20;;;15.80;88.20;;;;;;5010428;28;20647;-52
2021/05/17 10:08:32;;;;;;;1.83;1.10;;;15.90;86.20;;;;;;5008862;28;20651;-52
2021/05/17 10:10:58;;;;;;;0.90;0.90;;;16.10;85.50;;;;;;5010951;28;20624;-52
2021/05/17 10:13:25;;;;;;;2.53;1.10;;;16.20;84.90;;;;;;5010259;28;20706;-53
2021/05/17 10:15:53;;;;;;;1.50;1.27;;;16.10;86.10;;;;;;5008535;28;20659;-52
2021/05/17 10:18:20;;;;;;;3.20;1.20;;;15.90;88.30;;;;;;5009294;28;20623;-52
2021/05/17 10:20:47;;;;;;;1.73;1.47;;;15.70;89.80;;;;;;5010104;28;20636;-52
2021/05/17 10:23:14;;;;;;;2.43;1.50;;;15.60;90.30;;;;;;5009985;28;20632;-52
2021/05/17 10:25:41;;;;;;;3.33;1.37;;;15.50;90.30;;;;;;4990540;28;20660;-53
2021/05/17 10:28:09;;;;;;;1.87;1.40;;;15.30;91.30;;;;;;4990022;28;21022;-53
2021/05/17 10:30:37;;;;;;;6.03;1.63;;;15.20;92.30;;;;;;4990973;28;21041;-51
2021/05/17 10:33:05;;;;;;;2.30;1.80;;;15.00;92.80;;;;;;4990489;28;20661;-52
2021/05/17 10:35:33;;;;;;;4.23;2.03;;;15.00;93.20;;;;;;4990764;28;20722;-54
2021/05/17 10:38:22;;;;;;;2.50;1.33;;;15.10;94.10;;;;;;4991076;28;20625;-52
2021/05/17 10:40:51;;;;;;;1.60;1.00;;;15.70;93.20;;;;;;4990500;28;20664;-51
2021/05/17 10:43:54;;;;;;;1.17;0.90;;;16.00;91.50;;;;;;5005944;28;20727;-53
2021/05/17 10:46:38;;;;;;;1.67;1.20;;;16.00;89.10;;;;;;4990852;28;20722;-52
2021/05/17 10:49:25;;;;;;;0.97;0.97;;;16.00;90.30;;;;;;4990236;28;21194;-51
2021/05/17 10:51:53;;;;;;;3.20;1.53;;;15.80;89.90;;;;;;4990831;28;20754;-51
2021/05/17 10:54:24;;;;;;;2.67;0.80;;;15.70;89.80;;;;;;4999417;28;20635;-53
2021/05/17 10:56:54;;;;;;;4.63;1.80;;;15.60;91.00;;;;;;5009738;28;20635;-52
2021/05/17 11:02:14;;;;;;;2.13;1.40;;;15.50;91.60;;;;;;5010333;28;20654;-52
2021/05/17 11:04:51;;;;;;;2.60;1.20;;;15.60;91.50;;;;;;5010486;28;20650;-52
2021/05/17 11:07:20;;;;;;;1.30;1.10;;;15.90;92.00;;;;;;5010060;28;21040;-53
2021/05/17 11:09:56;;;;;;;1.67;0.90;;;16.50;91.30;;;;;;5010478;28;20660;-51
2021/05/17 11:12:57;;;;;;;1.87;1.27;;;16.80;90.20;;;;;;5010296;28;20749;-53
2021/05/17 11:15:25;;;;;;;2.23;1.30;;;17.00;87.40;;;;;;5009630;28;20667;-51
2021/05/17 11:18:02;;;;;;;2.87;1.40;;;17.00;87.70;;;;;;5009586;28;20700;-52
2021/05/17 11:20:52;;;;;;;5.77;1.53;;;16.90;87.20;;;;;;5010489;28;20667;-51
2021/05/17 11:23:21;;;;;;;1.67;0.80;;;17.00;89.40;;;;;;5009645;28;20674;-53
2021/05/17 11:25:50;;;;;;;4.27;1.53;;;17.20;89.40;;;;;;5010351;28;20717;-54
2021/05/17 11:28:17;;;;;;;1.73;0.90;;;17.30;87.90;;;;;;5009870;28;20697;-53
2021/05/17 11:30:44;;;;;;;1.90;1.00;;;17.30;86.30;;;;;;5010374;28;20683;-52
2021/05/17 11:33:16;;;;;;;4.53;1.30;;;17.30;85.50;;;;;;5014279;28;20662;-52
2021/05/17 11:36:14;;;;;;;2.00;1.13;;;17.00;86.60;;;;;;5013553;28;21073;-52
2021/05/17 11:39:02;;;;;;;4.47;1.60;;;16.40;88.80;;;;;;5012208;28;21270;-51
2021/05/17 11:41:29;;;;;;;3.50;1.70;;;15.40;92.40;;;;;;5014406;28;20705;-52
2021/05/17 11:43:59;;;;;;;2.13;1.37;;;14.70;95.20;;;;;;5013857;28;21185;-51
2021/05/17 11:46:26;;;;;;;2.50;1.77;;;14.40;95.80;;;;;;5013526;28;20655;-51
2021/05/17 11:48:53;;;;;;;3.23;1.77;;;14.40;96.90;;;;;;5013283;28;20790;-52
2021/05/17 11:51:24;;;;;;;2.17;1.37;;;14.60;98.40;;;;;;5013521;28;20616;-51
2021/05/17 11:53:51;;;;;;;1.33;0.93;;;15.10;97.90;;;;;;5013115;28;20659;-52
2021/05/17 11:56:18;;;;;;;1.10;1.00;;;15.70;95.90;;;;;;5013761;28;20697;-52
2021/05/17 11:58:44;;;;;;;1.00;0.90;;;16.10;94.10;;;;;;5013219;28;20944;-51
2021/05/17 12:01:14;;;;;;;2.20;1.40;;;16.30;94.00;;;;;;5013749;28;21037;-51
2021/05/17 12:03:41;;;;;;;1.40;0.80;;;16.60;93.80;;;;;;5012618;28;20654;-52
2021/05/17 12:06:08;;;;;;;0.73;0.60;;;16.90;92.20;;;;;;5012874;28;20664;-53
2021/05/17 12:08:38;;;;;;;1.53;0.90;;;17.10;88.20;;;;;;5012824;28;20674;-52
2021/05/17 12:11:11;;;;;;;2.07;1.00;;;17.10;85.70;;;;;;5013011;28;20747;-52
2021/05/17 12:13:47;;;;;;;0.90;0.53;;;17.20;83.70;;;;;;5012867;28;20655;-53
2021/05/17 12:16:26;;;;;;;1.77;0.60;;;17.20;80.70;;;;;;5013584;28;20663;-52
2021/05/17 12:18:57;;;;;;;1.43;0.97;;;17.40;82.20;;;;;;5012988;28;20697;-53
2021/05/17 12:21:24;;;;;;;4.20;0.60;;;17.70;80.70;;;;;;5014751;28;20639;-53
2021/05/17 12:23:52;;;;;;;0.50;0.47;;;18.00;78.00;;;;;;5013717;28;20635;-51
2021/05/17 12:26:18;;;;;;;2.10;1.03;;;18.40;75.90;;;;;;5012954;28;20659;-52
2021/05/17 12:28:47;;;;;;;1.33;0.80;;;18.60;72.00;;;;;;5012748;28;20998;-52
2021/05/17 12:31:24;;;;;;;1.00;0.90;;;18.50;70.00;;;;;;5013071;28;20996;-52
2021/05/17 12:33:51;;;;;;;0.70;0.60;;;18.20;72.80;;;;;;5012848;28;20781;-53
2021/05/17 12:36:17;;;;;;;1.60;0.70;;;18.10;73.00;;;;;;5012380;28;20659;-53
2021/05/17 12:38:48;;;;;;;1.10;0.87;;;18.00;75.10;;;;;;5012821;28;20640;-52
2021/05/17 12:41:35;;;;;;;2.40;0.93;;;17.90;74.90;;;;;;5012607;28;20623;-53
2021/05/17 12:44:03;;;;;;;1.57;0.80;;;17.80;74.20;;;;;;5013028;28;20587;-52
2021/05/17 12:46:30;;;;;;;0.90;0.57;;;17.70;72.40;;;;;;5011265;28;20663;-53
2021/05/17 12:48:57;;;;;;;1.00;0.80;;;17.50;72.60;;;;;;5011995;28;20632;-51
2021/05/17 12:51:26;;;;;;;1.47;0.93;;;17.20;74.80;;;;;;5012040;28;20742;-52
2021/05/17 12:53:54;;;;;;;0.80;0.80;;;17.00;76.90;;;;;;5011719;28;21251;-51
2021/05/17 12:56:27;;;;;;;2.20;0.87;;;17.00;76.60;;;;;;5012449;28;20651;-51
2021/05/17 12:58:55;;;;;;;1.13;0.80;;;16.90;76.00;;;;;;5013100;28;20674;-52
2021/05/17 13:01:25;;;;;;;2.00;0.83;;;17.20;77.00;;;;;;5027662;28;20715;-53
2021/05/17 13:03:58;;;;;;;1.23;0.80;;;17.60;73.60;;;;;;5012918;28;20619;-53
2021/05/17 13:06:25;;;;;;;0.83;0.63;;;17.80;71.50;;;;;;5013419;28;20717;-53
2021/05/17 13:08:54;;;;;;;0.80;0.73;;;18.30;70.20;;;;;;5011972;28;20698;-54
2021/05/17 13:11:26;;;;;;;1.10;0.87;;;18.70;65.60;;;;;;5011737;28;20751;-53